sensor_id;sensor_type;location;lat;lon;timestamp;P1;durP1;ratioP1;P2;durP2;ratioP2
21987;SDS011;11158;53.404;-1.510;2022-10-16T00:01:16;6.90;;;1.40;;
21987;SDS011;11158;53.404;-1.510;2022-10-16T00:03:44;6.25;;;1.30;;
21987;SDS011;11158;53.404;-1.510;2022-10-16T00:06:11;4.22;;;1.02;;
21987;SDS011;11158;53.404;-1.510;2022-10-16T00:08:37;6.72;;;1.10;;
21987;SDS011;11158;53.404;-1.510;2022-10-16T00:11:20;3.83;;;1.25;;
21987;SDS011;11158;53.404;-1.510;2022-10-16T00:13:48;5.05;;;1.30;;
21987;SDS011;11158;53.404;-1.510;2022-10-16T00:16:15;4.63;;;1.80;;
21987;SDS011;11158;53.404;-1.510;2022-10-16T00:18:41;8.98;;;1.35;;
21987;SDS011;11158;53.404;-1.510;2022-10-16T00:21:09;7.95;;;1.50;;
21987;SDS011;11158;53.404;-1.510;2022-10-16T00:23:42;5.97;;;1.65;;
21987;SDS011;11158;53.404;-1.510;2022-10-16T00:26:09;8.05;;;1.90;;
21987;SDS011;11158;53.404;-1.510;2022-10-16T00:28:37;11.10;;;2.10;;
21987;SDS011;11158;53.404;-1.510;2022-10-16T00:31:05;8.70;;;1.52;;
21987;SDS011;11158;53.404;-1.510;2022-10-16T00:33:32;5.57;;;1.50;;
21987;SDS011;11158;53.404;-1.510;2022-10-16T00:35:58;8.18;;;2.30;;
21987;SDS011;11158;53.404;-1.510;2022-10-16T00:38:24;10.00;;;2.00;;
21987;SDS011;11158;53.404;-1.510;2022-10-16T00:40:50;7.38;;;1.10;;
21987;SDS011;11158;53.404;-1.510;2022-10-16T00:46:25;7.38;;;1.67;;
21987;SDS011;11158;53.404;-1.510;2022-10-16T00:49:05;7.82;;;1.63;;
21987;SDS011;11158;53.404;-1.510;2022-10-16T00:51:35;7.43;;;1.70;;
21987;SDS011;11158;53.404;-1.510;2022-10-16T00:54:04;12.30;;;2.65;;
21987;SDS011;11158;53.404;-1.510;2022-10-16T00:56:35;12.43;;;1.60;;
21987;SDS011;11158;53.404;-1.510;2022-10-16T00:59:06;11.38;;;2.00;;
21987;SDS011;11158;53.404;-1.510;2022-10-16T01:01:44;7.28;;;1.50;;
21987;SDS011;11158;53.404;-1.510;2022-10-16T01:04:10;8.82;;;1.77;;
21987;SDS011;11158;53.404;-1.510;2022-10-16T01:06:45;11.15;;;1.67;;
21987;SDS011;11158;53.404;-1.510;2022-10-16T01:09:17;9.73;;;1.40;;
21987;SDS011;11158;53.404;-1.510;2022-10-16T01:12:06;11.20;;;2.08;;
21987;SDS011;11158;53.404;-1.510;2022-10-16T01:14:48;12.77;;;2.50;;
21987;SDS011;11158;53.404;-1.510;2022-10-16T01:17:38;11.73;;;2.33;;
21987;SDS011;11158;53.404;-1.510;2022-10-16T01:23:29;8.10;;;1.88;;
21987;SDS011;11158;53.404;-1.510;2022-10-16T01:26:18;10.23;;;1.52;;
21987;SDS011;11158;53.404;-1.510;2022-10-16T01:29:06;11.30;;;1.77;;
21987;SDS011;11158;53.404;-1.510;2022-10-16T01:31:39;9.30;;;1.73;;
21987;SDS011;11158;53.404;-1.510;2022-10-16T01:34:14;13.68;;;1.85;;
21987;SDS011;11158;53.404;-1.510;2022-10-16T01:36:51;7.65;;;1.20;;
21987;SDS011;11158;53.404;-1.510;2022-10-16T01:39:21;8.98;;;1.83;;
21987;SDS011;11158;53.404;-1.510;2022-10-16T01:41:52;6.35;;;1.80;;
21987;SDS011;11158;53.404;-1.510;2022-10-16T01:44:31;5.78;;;1.10;;
21987;SDS011;11158;53.404;-1.510;2022-10-16T01:46:58;6.53;;;1.27;;
21987;SDS011;11158;53.404;-1.510;2022-10-16T01:49:26;2.92;;;1.17;;
21987;SDS011;11158;53.404;-1.510;2022-10-16T01:51:56;5.82;;;1.30;;
21987;SDS011;11158;53.404;-1.510;2022-10-16T01:54:26;7.63;;;1.33;;
21987;SDS011;11158;53.404;-1.510;2022-10-16T01:56:56;9.93;;;1.63;;
21987;SDS011;11158;53.404;-1.510;2022-10-16T01:59:24;10.75;;;1.20;;
21987;SDS011;11158;53.404;-1.510;2022-10-16T02:01:58;6.05;;;1.17;;
21987;SDS011;11158;53.404;-1.510;2022-10-16T02:04:27;6.10;;;1.30;;
21987;SDS011;11158;53.404;-1.510;2022-10-16T02:06:54;3.40;;;0.98;;
21987;SDS011;11158;53.404;-1.510;2022-10-16T02:09:20;3.75;;;1.05;;
21987;SDS011;11158;53.404;-1.510;2022-10-16T02:11:46;6.32;;;1.05;;
21987;SDS011;11158;53.404;-1.510;2022-10-16T02:14:14;5.45;;;1.25;;
21987;SDS011;11158;53.404;-1.510;2022-10-16T02:16:41;5.40;;;1.25;;
21987;SDS011;11158;53.404;-1.510;2022-10-16T02:19:09;4.90;;;1.30;;
21987;SDS011;11158;53.404;-1.510;2022-10-16T02:24:09;3.00;;;1.08;;
21987;SDS011;11158;53.404;-1.510;2022-10-16T02:26:41;5.32;;;1.00;;
21987;SDS011;11158;53.404;-1.510;2022-10-16T02:29:14;5.55;;;1.20;;
21987;SDS011;11158;53.404;-1.510;2022-10-16T02:31:45;4.07;;;1.20;;
21987;SDS011;11158;53.404;-1.510;2022-10-16T02:34:16;6.53;;;1.27;;
21987;SDS011;11158;53.404;-1.510;2022-10-16T02:36:45;4.93;;;1.27;;
21987;SDS011;11158;53.404;-1.510;2022-10-16T02:39:16;4.43;;;1.08;;
21987;SDS011;11158;53.404;-1.510;2022-10-16T02:41:43;3.63;;;1.10;;
21987;SDS011;11158;53.404;-1.510;2022-10-16T02:44:09;4.82;;;1.10;;
21987;SDS011;11158;53.404;-1.510;2022-10-16T02:46:35;5.18;;;1.10;;
21987;SDS011;11158;53.404;-1.510;2022-10-16T02:49:00;6.38;;;1.38;;
21987;SDS011;11158;53.404;-1.510;2022-10-16T02:51:26;2.50;;;1.05;;
21987;SDS011;11158;53.404;-1.510;2022-10-16T02:53:52;4.82;;;1.13;;
21987;SDS011;11158;53.404;-1.510;2022-10-16T02:56:18;7.60;;;1.33;;
21987;SDS011;11158;53.404;-1.510;2022-10-16T02:58:44;5.82;;;0.90;;
21987;SDS011;11158;53.404;-1.510;2022-10-16T03:01:09;4.65;;;0.90;;
21987;SDS011;11158;53.404;-1.510;2022-10-16T03:03:35;3.90;;;1.02;;
21987;SDS011;11158;53.404;-1.510;2022-10-16T03:06:01;3.88;;;0.88;;
21987;SDS011;11158;53.404;-1.510;2022-10-16T03:08:27;5.68;;;1.27;;
21987;SDS011;11158;53.404;-1.510;2022-10-16T03:10:52;4.15;;;1.15;;
21987;SDS011;11158;53.404;-1.510;2022-10-16T03:13:18;8.35;;;1.50;;
21987;SDS011;11158;53.404;-1.510;2022-10-16T03:15:45;6.35;;;1.13;;
21987;SDS011;11158;53.404;-1.510;2022-10-16T03:18:11;3.97;;;1.10;;
21987;SDS011;11158;53.404;-1.510;2022-10-16T03:20:37;3.35;;;1.05;;
21987;SDS011;11158;53.404;-1.510;2022-10-16T03:23:03;7.88;;;1.33;;
21987;SDS011;11158;53.404;-1.510;2022-10-16T03:25:29;2.65;;;0.95;;
21987;SDS011;11158;53.404;-1.510;2022-10-16T03:27:54;4.82;;;1.17;;
21987;SDS011;11158;53.404;-1.510;2022-10-16T03:30:20;4.28;;;0.90;;
21987;SDS011;11158;53.404;-1.510;2022-10-16T03:32:46;5.95;;;1.13;;
21987;SDS011;11158;53.404;-1.510;2022-10-16T03:35:11;5.03;;;1.20;;
21987;SDS011;11158;53.404;-1.510;2022-10-16T03:37:38;9.93;;;1.63;;
21987;SDS011;11158;53.404;-1.510;2022-10-16T03:40:05;4.13;;;1.20;;
21987;SDS011;11158;53.404;-1.510;2022-10-16T03:42:31;2.88;;;0.80;;
21987;SDS011;11158;53.404;-1.510;2022-10-16T03:44:56;5.45;;;0.90;;
21987;SDS011;11158;53.404;-1.510;2022-10-16T03:47:22;4.88;;;1.20;;
21987;SDS011;11158;53.404;-1.510;2022-10-16T03:49:49;2.40;;;1.00;;
21987;SDS011;11158;53.404;-1.510;2022-10-16T03:52:15;7.15;;;1.02;;
21987;SDS011;11158;53.404;-1.510;2022-10-16T03:54:41;4.60;;;1.50;;
21987;SDS011;11158;53.404;-1.510;2022-10-16T03:57:07;2.78;;;0.95;;
21987;SDS011;11158;53.404;-1.510;2022-10-16T03:59:32;3.67;;;0.95;;
21987;SDS011;11158;53.404;-1.510;2022-10-16T04:01:59;3.60;;;1.38;;
21987;SDS011;11158;53.404;-1.510;2022-10-16T04:04:24;7.97;;;1.10;;
21987;SDS011;11158;53.404;-1.510;2022-10-16T04:06:51;7.32;;;1.27;;
21987;SDS011;11158;53.404;-1.510;2022-10-16T04:09:18;2.75;;;0.90;;
21987;SDS011;11158;53.404;-1.510;2022-10-16T04:11:44;2.38;;;0.90;;
21987;SDS011;11158;53.404;-1.510;2022-10-16T04:14:10;1.80;;;1.00;;
21987;SDS011;11158;53.404;-1.510;2022-10-16T04:16:35;3.85;;;0.93;;
21987;SDS011;11158;53.404;-1.510;2022-10-16T04:19:01;2.72;;;0.82;;
21987;SDS011;11158;53.404;-1.510;2022-10-16T04:21:27;4.40;;;1.55;;
21987;SDS011;11158;53.404;-1.510;2022-10-16T04:23:53;6.45;;;1.08;;
21987;SDS011;11158;53.404;-1.510;2022-10-16T04:26:20;4.63;;;1.20;;
21987;SDS011;11158;53.404;-1.510;2022-10-16T04:28:45;2.83;;;1.00;;
21987;SDS011;11158;53.404;-1.510;2022-10-16T04:31:11;3.08;;;1.00;;
21987;SDS011;11158;53.404;-1.510;2022-10-16T04:33:37;7.72;;;1.42;;
21987;SDS011;11158;53.404;-1.510;2022-10-16T04:36:03;5.78;;;1.13;;
21987;SDS011;11158;53.404;-1.510;2022-10-16T04:38:29;4.05;;;1.13;;
21987;SDS011;11158;53.404;-1.510;2022-10-16T04:40:55;4.50;;;0.85;;
21987;SDS011;11158;53.404;-1.510;2022-10-16T04:43:21;2.50;;;0.80;;
21987;SDS011;11158;53.404;-1.510;2022-10-16T04:45:46;5.10;;;1.13;;
21987;SDS011;11158;53.404;-1.510;2022-10-16T04:48:13;2.50;;;0.80;;
21987;SDS011;11158;53.404;-1.510;2022-10-16T04:50:38;4.45;;;0.95;;
21987;SDS011;11158;53.404;-1.510;2022-10-16T04:53:05;4.00;;;0.80;;
21987;SDS011;11158;53.404;-1.510;2022-10-16T04:55:31;3.85;;;0.90;;
21987;SDS011;11158;53.404;-1.510;2022-10-16T04:57:59;6.25;;;0.95;;
21987;SDS011;11158;53.404;-1.510;2022-10-16T05:00:24;6.40;;;1.25;;
21987;SDS011;11158;53.404;-1.510;2022-10-16T05:02:50;4.32;;;1.20;;
21987;SDS011;11158;53.404;-1.510;2022-10-16T05:05:16;3.22;;;0.90;;
21987;SDS011;11158;53.404;-1.510;2022-10-16T05:07:45;3.08;;;0.55;;
21987;SDS011;11158;53.404;-1.510;2022-10-16T05:10:11;7.10;;;1.00;;
21987;SDS011;11158;53.404;-1.510;2022-10-16T05:12:37;3.67;;;0.70;;
21987;SDS011;11158;53.404;-1.510;2022-10-16T05:15:02;2.58;;;0.80;;
21987;SDS011;11158;53.404;-1.510;2022-10-16T05:17:29;4.35;;;1.00;;
21987;SDS011;11158;53.404;-1.510;2022-10-16T05:19:55;2.90;;;1.63;;
21987;SDS011;11158;53.404;-1.510;2022-10-16T05:22:21;6.70;;;1.08;;
21987;SDS011;11158;53.404;-1.510;2022-10-16T05:24:46;4.35;;;0.80;;
21987;SDS011;11158;53.404;-1.510;2022-10-16T05:27:12;3.67;;;0.95;;
21987;SDS011;11158;53.404;-1.510;2022-10-16T05:29:47;3.97;;;0.80;;
21987;SDS011;11158;53.404;-1.510;2022-10-16T05:32:14;5.75;;;1.02;;
21987;SDS011;11158;53.404;-1.510;2022-10-16T05:34:41;3.78;;;0.77;;
21987;SDS011;11158;53.404;-1.510;2022-10-16T05:37:07;2.70;;;0.77;;
21987;SDS011;11158;53.404;-1.510;2022-10-16T05:39:33;2.28;;;0.88;;
21987;SDS011;11158;53.404;-1.510;2022-10-16T05:41:59;3.13;;;1.02;;
21987;SDS011;11158;53.404;-1.510;2022-10-16T05:44:25;1.98;;;0.60;;
21987;SDS011;11158;53.404;-1.510;2022-10-16T05:46:51;1.83;;;0.68;;
21987;SDS011;11158;53.404;-1.510;2022-10-16T05:49:17;2.95;;;0.90;;
21987;SDS011;11158;53.404;-1.510;2022-10-16T05:51:42;4.05;;;1.00;;
21987;SDS011;11158;53.404;-1.510;2022-10-16T05:54:08;2.92;;;0.60;;
21987;SDS011;11158;53.404;-1.510;2022-10-16T05:56:34;2.28;;;0.88;;
21987;SDS011;11158;53.404;-1.510;2022-10-16T05:58:59;2.70;;;0.80;;
21987;SDS011;11158;53.404;-1.510;2022-10-16T06:01:25;3.92;;;0.80;;
21987;SDS011;11158;53.404;-1.510;2022-10-16T06:03:51;4.18;;;0.80;;
21987;SDS011;11158;53.404;-1.510;2022-10-16T06:06:19;4.28;;;0.60;;
21987;SDS011;11158;53.404;-1.510;2022-10-16T06:08:47;2.38;;;0.80;;
21987;SDS011;11158;53.404;-1.510;2022-10-16T06:11:14;2.38;;;0.50;;
21987;SDS011;11158;53.404;-1.510;2022-10-16T06:13:45;2.83;;;0.80;;
21987;SDS011;11158;53.404;-1.510;2022-10-16T06:16:25;3.53;;;1.17;;
21987;SDS011;11158;53.404;-1.510;2022-10-16T06:18:52;1.77;;;0.73;;
21987;SDS011;11158;53.404;-1.510;2022-10-16T06:21:20;2.53;;;0.90;;
21987;SDS011;11158;53.404;-1.510;2022-10-16T06:23:47;7.32;;;0.88;;
21987;SDS011;11158;53.404;-1.510;2022-10-16T06:26:14;5.13;;;0.75;;
21987;SDS011;11158;53.404;-1.510;2022-10-16T06:28:42;3.28;;;0.80;;
21987;SDS011;11158;53.404;-1.510;2022-10-16T06:31:08;2.67;;;0.68;;
21987;SDS011;11158;53.404;-1.510;2022-10-16T06:33:35;2.45;;;0.70;;
21987;SDS011;11158;53.404;-1.510;2022-10-16T06:36:06;5.40;;;0.70;;
21987;SDS011;11158;53.404;-1.510;2022-10-16T06:38:34;3.10;;;0.73;;
21987;SDS011;11158;53.404;-1.510;2022-10-16T06:41:00;4.07;;;0.82;;
21987;SDS011;11158;53.404;-1.510;2022-10-16T06:43:26;3.38;;;1.00;;
21987;SDS011;11158;53.404;-1.510;2022-10-16T06:45:56;4.53;;;0.63;;
21987;SDS011;11158;53.404;-1.510;2022-10-16T06:48:25;4.03;;;0.75;;
21987;SDS011;11158;53.404;-1.510;2022-10-16T06:50:58;4.25;;;1.25;;
21987;SDS011;11158;53.404;-1.510;2022-10-16T06:53:27;3.17;;;0.93;;
21987;SDS011;11158;53.404;-1.510;2022-10-16T06:55:55;7.45;;;0.90;;
21987;SDS011;11158;53.404;-1.510;2022-10-16T06:58:21;4.32;;;0.70;;
21987;SDS011;11158;53.404;-1.510;2022-10-16T07:00:47;4.28;;;0.90;;
21987;SDS011;11158;53.404;-1.510;2022-10-16T07:03:13;4.88;;;1.13;;
21987;SDS011;11158;53.404;-1.510;2022-10-16T07:05:40;6.60;;;1.35;;
21987;SDS011;11158;53.404;-1.510;2022-10-16T07:08:07;6.38;;;1.45;;
21987;SDS011;11158;53.404;-1.510;2022-10-16T07:10:34;4.38;;;0.90;;
21987;SDS011;11158;53.404;-1.510;2022-10-16T07:13:00;2.65;;;0.90;;
21987;SDS011;11158;53.404;-1.510;2022-10-16T07:15:26;2.85;;;1.00;;
21987;SDS011;11158;53.404;-1.510;2022-10-16T07:17:53;3.55;;;1.00;;
21987;SDS011;11158;53.404;-1.510;2022-10-16T07:20:19;3.30;;;1.13;;
21987;SDS011;11158;53.404;-1.510;2022-10-16T07:22:45;3.80;;;1.05;;
21987;SDS011;11158;53.404;-1.510;2022-10-16T07:25:11;2.78;;;1.20;;
21987;SDS011;11158;53.404;-1.510;2022-10-16T07:27:37;4.13;;;1.20;;
21987;SDS011;11158;53.404;-1.510;2022-10-16T07:30:04;2.90;;;0.98;;
21987;SDS011;11158;53.404;-1.510;2022-10-16T07:32:31;3.10;;;0.70;;
21987;SDS011;11158;53.404;-1.510;2022-10-16T07:34:57;3.85;;;0.90;;
21987;SDS011;11158;53.404;-1.510;2022-10-16T07:37:22;4.07;;;0.80;;
21987;SDS011;11158;53.404;-1.510;2022-10-16T07:39:48;3.30;;;0.98;;
21987;SDS011;11158;53.404;-1.510;2022-10-16T07:42:14;5.03;;;0.80;;
21987;SDS011;11158;53.404;-1.510;2022-10-16T07:44:40;2.95;;;1.05;;
21987;SDS011;11158;53.404;-1.510;2022-10-16T07:47:06;6.47;;;0.95;;
21987;SDS011;11158;53.404;-1.510;2022-10-16T07:49:32;5.80;;;0.65;;
21987;SDS011;11158;53.404;-1.510;2022-10-16T07:51:58;4.72;;;1.25;;
21987;SDS011;11158;53.404;-1.510;2022-10-16T07:54:23;3.88;;;1.10;;
21987;SDS011;11158;53.404;-1.510;2022-10-16T07:56:49;2.92;;;0.57;;
21987;SDS011;11158;53.404;-1.510;2022-10-16T07:59:15;7.57;;;1.00;;
21987;SDS011;11158;53.404;-1.510;2022-10-16T08:01:41;3.47;;;1.55;;
21987;SDS011;11158;53.404;-1.510;2022-10-16T08:04:10;3.97;;;0.75;;
21987;SDS011;11158;53.404;-1.510;2022-10-16T08:06:36;3.85;;;1.02;;
21987;SDS011;11158;53.404;-1.510;2022-10-16T08:09:03;4.40;;;0.88;;
21987;SDS011;11158;53.404;-1.510;2022-10-16T08:11:29;4.80;;;1.00;;
21987;SDS011;11158;53.404;-1.510;2022-10-16T08:13:55;6.80;;;1.10;;
21987;SDS011;11158;53.404;-1.510;2022-10-16T08:16:21;2.97;;;0.75;;
21987;SDS011;11158;53.404;-1.510;2022-10-16T08:18:47;8.40;;;1.17;;
21987;SDS011;11158;53.404;-1.510;2022-10-16T08:21:13;5.18;;;0.90;;
21987;SDS011;11158;53.404;-1.510;2022-10-16T08:23:41;4.25;;;0.98;;
21987;SDS011;11158;53.404;-1.510;2022-10-16T08:26:08;7.47;;;1.13;;
21987;SDS011;11158;53.404;-1.510;2022-10-16T08:28:34;7.57;;;1.10;;
21987;SDS011;11158;53.404;-1.510;2022-10-16T08:31:08;3.33;;;1.15;;
21987;SDS011;11158;53.404;-1.510;2022-10-16T08:33:35;4.57;;;0.90;;
21987;SDS011;11158;53.404;-1.510;2022-10-16T08:36:02;4.80;;;0.88;;
21987;SDS011;11158;53.404;-1.510;2022-10-16T08:38:28;3.75;;;0.90;;
21987;SDS011;11158;53.404;-1.510;2022-10-16T08:40:57;2.67;;;0.63;;
21987;SDS011;11158;53.404;-1.510;2022-10-16T08:43:54;4.78;;;1.20;;
21987;SDS011;11158;53.404;-1.510;2022-10-16T08:48:58;4.13;;;1.02;;
21987;SDS011;11158;53.404;-1.510;2022-10-16T08:51:26;3.72;;;0.90;;
21987;SDS011;11158;53.404;-1.510;2022-10-16T08:54:02;2.30;;;0.80;;
21987;SDS011;11158;53.404;-1.510;2022-10-16T08:56:30;4.90;;;1.20;;
21987;SDS011;11158;53.404;-1.510;2022-10-16T08:58:57;3.47;;;0.95;;
21987;SDS011;11158;53.404;-1.510;2022-10-16T09:01:24;6.93;;;1.10;;
21987;SDS011;11158;53.404;-1.510;2022-10-16T09:06:58;5.05;;;0.90;;
21987;SDS011;11158;53.404;-1.510;2022-10-16T09:18:01;4.05;;;1.27;;
21987;SDS011;11158;53.404;-1.510;2022-10-16T09:20:42;3.88;;;0.98;;
21987;SDS011;11158;53.404;-1.510;2022-10-16T09:23:29;3.72;;;0.90;;
21987;SDS011;11158;53.404;-1.510;2022-10-16T09:25:56;2.13;;;0.70;;
21987;SDS011;11158;53.404;-1.510;2022-10-16T09:28:24;4.68;;;0.82;;
21987;SDS011;11158;53.404;-1.510;2022-10-16T09:30:50;2.67;;;0.90;;
21987;SDS011;11158;53.404;-1.510;2022-10-16T09:33:17;3.00;;;0.90;;
21987;SDS011;11158;53.404;-1.510;2022-10-16T09:35:47;5.32;;;1.02;;
21987;SDS011;11158;53.404;-1.510;2022-10-16T09:38:24;3.50;;;0.75;;
21987;SDS011;11158;53.404;-1.510;2022-10-16T09:40:50;3.20;;;0.65;;
21987;SDS011;11158;53.404;-1.510;2022-10-16T09:43:21;6.03;;;1.27;;
21987;SDS011;11158;53.404;-1.510;2022-10-16T09:45:54;3.85;;;1.13;;
21987;SDS011;11158;53.404;-1.510;2022-10-16T09:48:23;2.45;;;0.77;;
21987;SDS011;11158;53.404;-1.510;2022-10-16T09:51:01;4.63;;;1.10;;
21987;SDS011;11158;53.404;-1.510;2022-10-16T09:53:38;4.90;;;1.20;;
21987;SDS011;11158;53.404;-1.510;2022-10-16T09:56:24;2.85;;;1.02;;
21987;SDS011;11158;53.404;-1.510;2022-10-16T09:59:13;4.70;;;1.05;;
21987;SDS011;11158;53.404;-1.510;2022-10-16T10:04:06;3.97;;;1.25;;
21987;SDS011;11158;53.404;-1.510;2022-10-16T10:06:34;4.22;;;1.52;;
21987;SDS011;11158;53.404;-1.510;2022-10-16T10:09:05;4.60;;;1.10;;
21987;SDS011;11158;53.404;-1.510;2022-10-16T10:16:52;4.50;;;1.20;;
21987;SDS011;11158;53.404;-1.510;2022-10-16T10:19:28;4.30;;;1.20;;
21987;SDS011;11158;53.404;-1.510;2022-10-16T10:21:53;3.53;;;1.70;;
21987;SDS011;11158;53.404;-1.510;2022-10-16T10:24:19;6.90;;;0.88;;
21987;SDS011;11158;53.404;-1.510;2022-10-16T10:27:07;2.28;;;0.90;;
21987;SDS011;11158;53.404;-1.510;2022-10-16T10:29:39;4.20;;;0.65;;
21987;SDS011;11158;53.404;-1.510;2022-10-16T10:37:29;3.65;;;0.80;;
21987;SDS011;11158;53.404;-1.510;2022-10-16T10:42:35;4.07;;;0.90;;
21987;SDS011;11158;53.404;-1.510;2022-10-16T10:45:44;3.70;;;0.90;;
21987;SDS011;11158;53.404;-1.510;2022-10-16T10:51:08;6.25;;;0.85;;
21987;SDS011;11158;53.404;-1.510;2022-10-16T10:53:56;4.00;;;0.85;;
21987;SDS011;11158;53.404;-1.510;2022-10-16T10:56:39;3.22;;;0.60;;
21987;SDS011;11158;53.404;-1.510;2022-10-16T11:02:15;3.05;;;0.80;;
21987;SDS011;11158;53.404;-1.510;2022-10-16T11:05:06;3.15;;;0.98;;
21987;SDS011;11158;53.404;-1.510;2022-10-16T11:08:16;4.38;;;0.60;;
21987;SDS011;11158;53.404;-1.510;2022-10-16T11:13:32;2.42;;;0.60;;
21987;SDS011;11158;53.404;-1.510;2022-10-16T11:16:15;2.75;;;0.65;;
21987;SDS011;11158;53.404;-1.510;2022-10-16T11:18:52;3.65;;;0.85;;
21987;SDS011;11158;53.404;-1.510;2022-10-16T11:21:19;3.25;;;0.70;;
21987;SDS011;11158;53.404;-1.510;2022-10-16T11:23:59;3.95;;;1.30;;
21987;SDS011;11158;53.404;-1.510;2022-10-16T11:26:34;5.20;;;0.70;;
21987;SDS011;11158;53.404;-1.510;2022-10-16T11:29:04;3.00;;;0.68;;
21987;SDS011;11158;53.404;-1.510;2022-10-16T11:31:40;3.53;;;0.90;;
21987;SDS011;11158;53.404;-1.510;2022-10-16T11:37:07;1.60;;;0.90;;
21987;SDS011;11158;53.404;-1.510;2022-10-16T11:39:38;1.90;;;0.60;;
21987;SDS011;11158;53.404;-1.510;2022-10-16T11:42:11;5.60;;;0.75;;
21987;SDS011;11158;53.404;-1.510;2022-10-16T11:45:02;3.03;;;0.60;;
21987;SDS011;11158;53.404;-1.510;2022-10-16T11:55:40;2.38;;;0.70;;
21987;SDS011;11158;53.404;-1.510;2022-10-16T12:09:04;2.65;;;0.70;;
21987;SDS011;11158;53.404;-1.510;2022-10-16T12:11:32;1.92;;;0.50;;
21987;SDS011;11158;53.404;-1.510;2022-10-16T12:14:06;2.38;;;0.50;;
21987;SDS011;11158;53.404;-1.510;2022-10-16T12:19:20;2.10;;;0.60;;
21987;SDS011;11158;53.404;-1.510;2022-10-16T12:21:47;1.95;;;0.77;;
21987;SDS011;11158;53.404;-1.510;2022-10-16T12:24:27;2.45;;;0.60;;
21987;SDS011;11158;53.404;-1.510;2022-10-16T12:26:55;1.38;;;0.40;;
21987;SDS011;11158;53.404;-1.510;2022-10-16T12:31:47;3.15;;;0.68;;
21987;SDS011;11158;53.404;-1.510;2022-10-16T12:34:22;1.25;;;0.50;;
21987;SDS011;11158;53.404;-1.510;2022-10-16T12:36:53;1.52;;;0.50;;
21987;SDS011;11158;53.404;-1.510;2022-10-16T12:39:22;1.17;;;0.40;;
21987;SDS011;11158;53.404;-1.510;2022-10-16T12:42:02;4.03;;;1.13;;
21987;SDS011;11158;53.404;-1.510;2022-10-16T12:44:33;1.63;;;0.90;;
21987;SDS011;11158;53.404;-1.510;2022-10-16T12:47:01;3.20;;;1.02;;
21987;SDS011;11158;53.404;-1.510;2022-10-16T12:49:37;3.58;;;0.60;;
21987;SDS011;11158;53.404;-1.510;2022-10-16T12:52:22;5.55;;;0.88;;
21987;SDS011;11158;53.404;-1.510;2022-10-16T12:54:58;4.88;;;0.85;;
21987;SDS011;11158;53.404;-1.510;2022-10-16T12:59:59;3.55;;;0.68;;
21987;SDS011;11158;53.404;-1.510;2022-10-16T13:10:47;1.73;;;0.22;;
21987;SDS011;11158;53.404;-1.510;2022-10-16T13:23:49;2.20;;;0.80;;
21987;SDS011;11158;53.404;-1.510;2022-10-16T13:28:48;3.90;;;0.80;;
21987;SDS011;11158;53.404;-1.510;2022-10-16T13:31:23;3.65;;;0.70;;
21987;SDS011;11158;53.404;-1.510;2022-10-16T13:33:54;1.60;;;0.73;;
21987;SDS011;11158;53.404;-1.510;2022-10-16T13:36:25;3.10;;;1.10;;
21987;SDS011;11158;53.404;-1.510;2022-10-16T13:39:00;3.22;;;0.85;;
21987;SDS011;11158;53.404;-1.510;2022-10-16T13:41:31;4.53;;;0.85;;
21987;SDS011;11158;53.404;-1.510;2022-10-16T13:43:57;3.20;;;1.13;;
21987;SDS011;11158;53.404;-1.510;2022-10-16T13:46:23;1.17;;;0.50;;
21987;SDS011;11158;53.404;-1.510;2022-10-16T13:48:58;2.63;;;0.80;;
21987;SDS011;11158;53.404;-1.510;2022-10-16T13:51:25;2.53;;;0.80;;
21987;SDS011;11158;53.404;-1.510;2022-10-16T13:53:52;2.58;;;1.25;;
21987;SDS011;11158;53.404;-1.510;2022-10-16T13:56:20;4.28;;;1.00;;
21987;SDS011;11158;53.404;-1.510;2022-10-16T13:59:01;2.47;;;1.20;;
21987;SDS011;11158;53.404;-1.510;2022-10-16T14:01:29;2.50;;;0.95;;
21987;SDS011;11158;53.404;-1.510;2022-10-16T14:04:07;1.58;;;1.00;;
21987;SDS011;11158;53.404;-1.510;2022-10-16T14:06:36;3.05;;;1.25;;
21987;SDS011;11158;53.404;-1.510;2022-10-16T14:09:13;1.35;;;0.70;;
21987;SDS011;11158;53.404;-1.510;2022-10-16T14:11:48;4.05;;;0.90;;
21987;SDS011;11158;53.404;-1.510;2022-10-16T14:14:17;2.42;;;0.90;;
21987;SDS011;11158;53.404;-1.510;2022-10-16T14:16:44;2.78;;;0.98;;
21987;SDS011;11158;53.404;-1.510;2022-10-16T14:19:29;4.82;;;0.93;;
21987;SDS011;11158;53.404;-1.510;2022-10-16T14:21:56;2.45;;;0.60;;
21987;SDS011;11158;53.404;-1.510;2022-10-16T14:24:31;1.73;;;0.57;;
21987;SDS011;11158;53.404;-1.510;2022-10-16T14:26:57;4.38;;;0.80;;
21987;SDS011;11158;53.404;-1.510;2022-10-16T14:29:24;1.80;;;0.80;;
21987;SDS011;11158;53.404;-1.510;2022-10-16T14:31:56;4.85;;;0.65;;
21987;SDS011;11158;53.404;-1.510;2022-10-16T14:34:35;1.48;;;0.70;;
21987;SDS011;11158;53.404;-1.510;2022-10-16T14:39:32;3.47;;;0.65;;
21987;SDS011;11158;53.404;-1.510;2022-10-16T14:41:58;1.10;;;0.60;;
21987;SDS011;11158;53.404;-1.510;2022-10-16T14:44:33;2.17;;;0.70;;
21987;SDS011;11158;53.404;-1.510;2022-10-16T14:47:09;2.53;;;0.70;;
21987;SDS011;11158;53.404;-1.510;2022-10-16T14:49:42;2.70;;;0.82;;
21987;SDS011;11158;53.404;-1.510;2022-10-16T14:52:08;3.45;;;0.60;;
21987;SDS011;11158;53.404;-1.510;2022-10-16T14:54:39;3.00;;;0.70;;
21987;SDS011;11158;53.404;-1.510;2022-10-16T14:57:05;2.10;;;0.88;;
21987;SDS011;11158;53.404;-1.510;2022-10-16T14:59:42;7.30;;;2.38;;
21987;SDS011;11158;53.404;-1.510;2022-10-16T15:04:46;3.60;;;1.40;;
21987;SDS011;11158;53.404;-1.510;2022-10-16T15:07:11;3.90;;;1.90;;
21987;SDS011;11158;53.404;-1.510;2022-10-16T15:09:37;3.40;;;1.52;;
21987;SDS011;11158;53.404;-1.510;2022-10-16T15:12:03;2.58;;;1.67;;
21987;SDS011;11158;53.404;-1.510;2022-10-16T15:14:29;3.10;;;1.33;;
21987;SDS011;11158;53.404;-1.510;2022-10-16T15:16:55;4.90;;;1.10;;
21987;SDS011;11158;53.404;-1.510;2022-10-16T15:19:21;3.22;;;0.95;;
21987;SDS011;11158;53.404;-1.510;2022-10-16T15:21:48;2.55;;;1.13;;
21987;SDS011;11158;53.404;-1.510;2022-10-16T15:24:15;2.25;;;0.88;;
21987;SDS011;11158;53.404;-1.510;2022-10-16T15:26:40;2.83;;;0.80;;
21987;SDS011;11158;53.404;-1.510;2022-10-16T15:29:07;2.92;;;0.90;;
21987;SDS011;11158;53.404;-1.510;2022-10-16T15:31:33;2.15;;;0.75;;
21987;SDS011;11158;53.404;-1.510;2022-10-16T15:33:59;2.42;;;1.00;;
21987;SDS011;11158;53.404;-1.510;2022-10-16T15:36:30;2.83;;;1.30;;
21987;SDS011;11158;53.404;-1.510;2022-10-16T15:39:05;3.30;;;1.02;;
21987;SDS011;11158;53.404;-1.510;2022-10-16T15:41:40;2.90;;;1.00;;
21987;SDS011;11158;53.404;-1.510;2022-10-16T15:44:06;2.42;;;1.20;;
21987;SDS011;11158;53.404;-1.510;2022-10-16T15:46:32;6.35;;;1.67;;
21987;SDS011;11158;53.404;-1.510;2022-10-16T15:48:59;3.20;;;1.05;;
21987;SDS011;11158;53.404;-1.510;2022-10-16T15:51:25;3.38;;;1.30;;
21987;SDS011;11158;53.404;-1.510;2022-10-16T15:53:58;4.60;;;1.10;;
21987;SDS011;11158;53.404;-1.510;2022-10-16T15:56:26;1.60;;;0.70;;
21987;SDS011;11158;53.404;-1.510;2022-10-16T15:58:53;4.70;;;1.52;;
21987;SDS011;11158;53.404;-1.510;2022-10-16T16:01:20;3.40;;;1.23;;
21987;SDS011;11158;53.404;-1.510;2022-10-16T16:03:46;3.15;;;0.90;;
21987;SDS011;11158;53.404;-1.510;2022-10-16T16:06:13;3.65;;;1.15;;
21987;SDS011;11158;53.404;-1.510;2022-10-16T16:08:39;4.03;;;1.20;;
21987;SDS011;11158;53.404;-1.510;2022-10-16T16:11:09;5.40;;;1.42;;
21987;SDS011;11158;53.404;-1.510;2022-10-16T16:16:10;2.70;;;1.00;;
21987;SDS011;11158;53.404;-1.510;2022-10-16T16:18:37;3.17;;;1.25;;
21987;SDS011;11158;53.404;-1.510;2022-10-16T16:21:04;6.13;;;1.55;;
21987;SDS011;11158;53.404;-1.510;2022-10-16T16:23:31;2.70;;;1.23;;
21987;SDS011;11158;53.404;-1.510;2022-10-16T16:26:11;2.90;;;1.38;;
21987;SDS011;11158;53.404;-1.510;2022-10-16T16:28:40;4.75;;;1.40;;
21987;SDS011;11158;53.404;-1.510;2022-10-16T16:31:07;3.45;;;1.30;;
21987;SDS011;11158;53.404;-1.510;2022-10-16T16:33:33;4.13;;;1.67;;